sensor_id;sensor_type;location;lat;lon;timestamp;P1;durP1;ratioP1;P2;durP2;ratioP2
73632;SDS011;61927;50.080;14.418;2023-05-29T00:00:13;6.57;;;2.60;;
73632;SDS011;61927;50.080;14.418;2023-05-29T00:03:03;2.97;;;2.65;;
73632;SDS011;61927;50.080;14.418;2023-05-29T00:05:30;6.43;;;2.83;;
73632;SDS011;61927;50.080;14.418;2023-05-29T00:07:56;8.48;;;3.03;;
73632;SDS011;61927;50.080;14.418;2023-05-29T00:10:21;6.40;;;3.05;;
73632;SDS011;61927;50.080;14.418;2023-05-29T00:12:47;3.75;;;2.70;;
73632;SDS011;61927;50.080;14.418;2023-05-29T00:15:13;6.05;;;2.85;;
73632;SDS011;61927;50.080;14.418;2023-05-29T00:17:38;4.90;;;2.80;;
73632;SDS011;61927;50.080;14.418;2023-05-29T00:20:05;6.75;;;2.80;;
73632;SDS011;61927;50.080;14.418;2023-05-29T00:22:37;5.70;;;2.72;;
73632;SDS011;61927;50.080;14.418;2023-05-29T00:25:06;3.78;;;2.72;;
73632;SDS011;61927;50.080;14.418;2023-05-29T00:27:33;5.47;;;3.05;;
73632;SDS011;61927;50.080;14.418;2023-05-29T00:29:59;7.53;;;2.70;;
73632;SDS011;61927;50.080;14.418;2023-05-29T00:32:26;11.30;;;3.45;;
73632;SDS011;61927;50.080;14.418;2023-05-29T00:34:52;12.60;;;2.65;;
73632;SDS011;61927;50.080;14.418;2023-05-29T00:37:19;3.95;;;2.92;;
73632;SDS011;61927;50.080;14.418;2023-05-29T00:39:47;4.10;;;2.75;;
73632;SDS011;61927;50.080;14.418;2023-05-29T00:42:13;6.32;;;2.80;;
73632;SDS011;61927;50.080;14.418;2023-05-29T00:44:38;3.40;;;2.35;;
73632;SDS011;61927;50.080;14.418;2023-05-29T00:47:04;5.30;;;3.03;;
73632;SDS011;61927;50.080;14.418;2023-05-29T00:49:30;13.68;;;2.70;;
73632;SDS011;61927;50.080;14.418;2023-05-29T00:51:56;4.07;;;2.90;;
73632;SDS011;61927;50.080;14.418;2023-05-29T00:54:26;3.38;;;2.70;;
73632;SDS011;61927;50.080;14.418;2023-05-29T00:56:53;5.20;;;2.45;;
73632;SDS011;61927;50.080;14.418;2023-05-29T00:59:20;5.35;;;2.92;;
73632;SDS011;61927;50.080;14.418;2023-05-29T01:01:48;5.22;;;2.67;;
73632;SDS011;61927;50.080;14.418;2023-05-29T01:04:16;6.75;;;2.83;;
73632;SDS011;61927;50.080;14.418;2023-05-29T01:06:42;3.65;;;2.78;;
73632;SDS011;61927;50.080;14.418;2023-05-29T01:09:09;3.67;;;2.97;;
73632;SDS011;61927;50.080;14.418;2023-05-29T01:14:05;5.80;;;3.65;;
73632;SDS011;61927;50.080;14.418;2023-05-29T01:16:37;3.97;;;2.88;;
73632;SDS011;61927;50.080;14.418;2023-05-29T01:22:24;6.07;;;3.58;;
73632;SDS011;61927;50.080;14.418;2023-05-29T01:27:49;5.10;;;3.72;;
73632;SDS011;61927;50.080;14.418;2023-05-29T01:30:17;13.02;;;3.88;;
73632;SDS011;61927;50.080;14.418;2023-05-29T01:32:43;8.20;;;3.83;;
73632;SDS011;61927;50.080;14.418;2023-05-29T01:35:09;8.73;;;4.53;;
73632;SDS011;61927;50.080;14.418;2023-05-29T01:37:35;11.50;;;4.28;;
73632;SDS011;61927;50.080;14.418;2023-05-29T01:40:01;13.55;;;4.10;;
73632;SDS011;61927;50.080;14.418;2023-05-29T01:42:30;5.22;;;4.00;;
73632;SDS011;61927;50.080;14.418;2023-05-29T01:44:55;7.20;;;3.75;;
73632;SDS011;61927;50.080;14.418;2023-05-29T01:47:22;10.02;;;4.10;;
73632;SDS011;61927;50.080;14.418;2023-05-29T01:49:49;6.18;;;4.03;;
73632;SDS011;61927;50.080;14.418;2023-05-29T01:52:16;10.60;;;4.20;;
73632;SDS011;61927;50.080;14.418;2023-05-29T01:54:43;9.43;;;4.28;;
73632;SDS011;61927;50.080;14.418;2023-05-29T01:57:10;7.28;;;3.95;;
73632;SDS011;61927;50.080;14.418;2023-05-29T01:59:36;11.65;;;4.32;;
73632;SDS011;61927;50.080;14.418;2023-05-29T02:02:09;8.55;;;4.25;;
73632;SDS011;61927;50.080;14.418;2023-05-29T02:04:36;7.60;;;4.05;;
73632;SDS011;61927;50.080;14.418;2023-05-29T02:07:03;9.38;;;3.60;;
73632;SDS011;61927;50.080;14.418;2023-05-29T02:09:29;8.68;;;4.30;;
73632;SDS011;61927;50.080;14.418;2023-05-29T02:11:55;8.57;;;3.97;;
73632;SDS011;61927;50.080;14.418;2023-05-29T02:14:21;14.55;;;4.20;;
73632;SDS011;61927;50.080;14.418;2023-05-29T02:16:49;8.00;;;4.07;;
73632;SDS011;61927;50.080;14.418;2023-05-29T02:19:17;11.45;;;4.20;;
73632;SDS011;61927;50.080;14.418;2023-05-29T02:21:43;8.25;;;4.00;;
73632;SDS011;61927;50.080;14.418;2023-05-29T02:24:09;4.68;;;3.72;;
73632;SDS011;61927;50.080;14.418;2023-05-29T02:26:35;11.82;;;4.60;;
73632;SDS011;61927;50.080;14.418;2023-05-29T02:29:03;9.15;;;4.13;;
73632;SDS011;61927;50.080;14.418;2023-05-29T02:31:30;6.53;;;3.58;;
73632;SDS011;61927;50.080;14.418;2023-05-29T02:33:56;6.93;;;3.30;;
73632;SDS011;61927;50.080;14.418;2023-05-29T02:36:22;3.95;;;3.60;;
73632;SDS011;61927;50.080;14.418;2023-05-29T02:38:48;10.82;;;4.10;;
73632;SDS011;61927;50.080;14.418;2023-05-29T02:41:14;8.25;;;3.80;;
73632;SDS011;61927;50.080;14.418;2023-05-29T02:43:40;7.25;;;3.95;;
73632;SDS011;61927;50.080;14.418;2023-05-29T02:46:05;5.53;;;3.92;;
73632;SDS011;61927;50.080;14.418;2023-05-29T02:48:31;8.20;;;3.95;;
73632;SDS011;61927;50.080;14.418;2023-05-29T02:50:56;8.80;;;4.10;;
73632;SDS011;61927;50.080;14.418;2023-05-29T02:53:22;5.05;;;3.60;;
73632;SDS011;61927;50.080;14.418;2023-05-29T02:55:48;11.05;;;4.05;;
73632;SDS011;61927;50.080;14.418;2023-05-29T02:58:14;6.93;;;4.00;;
73632;SDS011;61927;50.080;14.418;2023-05-29T03:00:41;9.15;;;3.90;;
73632;SDS011;61927;50.080;14.418;2023-05-29T03:03:07;22.83;;;4.35;;
73632;SDS011;61927;50.080;14.418;2023-05-29T03:05:33;10.90;;;3.95;;
73632;SDS011;61927;50.080;14.418;2023-05-29T03:07:58;6.55;;;3.90;;
73632;SDS011;61927;50.080;14.418;2023-05-29T03:10:24;5.78;;;3.85;;
73632;SDS011;61927;50.080;14.418;2023-05-29T03:12:50;7.00;;;3.67;;
73632;SDS011;61927;50.080;14.418;2023-05-29T03:15:16;6.95;;;3.95;;
73632;SDS011;61927;50.080;14.418;2023-05-29T03:17:45;5.82;;;3.63;;
73632;SDS011;61927;50.080;14.418;2023-05-29T03:20:11;8.77;;;3.80;;
73632;SDS011;61927;50.080;14.418;2023-05-29T03:22:37;14.43;;;4.00;;
73632;SDS011;61927;50.080;14.418;2023-05-29T03:25:03;18.42;;;5.25;;
73632;SDS011;61927;50.080;14.418;2023-05-29T03:27:29;15.43;;;4.95;;
73632;SDS011;61927;50.080;14.418;2023-05-29T03:29:55;13.73;;;4.20;;
73632;SDS011;61927;50.080;14.418;2023-05-29T03:32:23;12.27;;;4.00;;
73632;SDS011;61927;50.080;14.418;2023-05-29T03:34:48;9.73;;;4.22;;
73632;SDS011;61927;50.080;14.418;2023-05-29T03:37:14;6.30;;;3.35;;
73632;SDS011;61927;50.080;14.418;2023-05-29T03:39:40;8.98;;;3.83;;
73632;SDS011;61927;50.080;14.418;2023-05-29T03:42:05;17.50;;;4.13;;
73632;SDS011;61927;50.080;14.418;2023-05-29T03:44:31;6.43;;;3.53;;
73632;SDS011;61927;50.080;14.418;2023-05-29T03:46:57;7.03;;;4.05;;
73632;SDS011;61927;50.080;14.418;2023-05-29T03:49:23;7.88;;;3.78;;
73632;SDS011;61927;50.080;14.418;2023-05-29T03:51:49;6.18;;;3.40;;
73632;SDS011;61927;50.080;14.418;2023-05-29T03:54:15;8.15;;;4.10;;
73632;SDS011;61927;50.080;14.418;2023-05-29T03:56:40;7.03;;;3.63;;
73632;SDS011;61927;50.080;14.418;2023-05-29T03:59:06;5.20;;;3.88;;
73632;SDS011;61927;50.080;14.418;2023-05-29T04:01:32;10.60;;;4.07;;
73632;SDS011;61927;50.080;14.418;2023-05-29T04:03:57;4.43;;;3.45;;
73632;SDS011;61927;50.080;14.418;2023-05-29T04:06:23;7.07;;;3.80;;
73632;SDS011;61927;50.080;14.418;2023-05-29T04:08:49;6.65;;;4.10;;
73632;SDS011;61927;50.080;14.418;2023-05-29T04:11:15;6.30;;;3.97;;
73632;SDS011;61927;50.080;14.418;2023-05-29T04:13:40;9.13;;;4.15;;
73632;SDS011;61927;50.080;14.418;2023-05-29T04:16:06;8.50;;;4.35;;
73632;SDS011;61927;50.080;14.418;2023-05-29T04:18:33;10.32;;;4.55;;
73632;SDS011;61927;50.080;14.418;2023-05-29T04:20:58;8.55;;;4.25;;
73632;SDS011;61927;50.080;14.418;2023-05-29T04:23:24;15.55;;;4.40;;
73632;SDS011;61927;50.080;14.418;2023-05-29T04:25:50;7.70;;;4.35;;
73632;SDS011;61927;50.080;14.418;2023-05-29T04:28:18;10.57;;;4.07;;
73632;SDS011;61927;50.080;14.418;2023-05-29T04:30:46;15.80;;;5.55;;
73632;SDS011;61927;50.080;14.418;2023-05-29T04:33:12;10.60;;;4.38;;
73632;SDS011;61927;50.080;14.418;2023-05-29T04:35:39;15.25;;;4.07;;
73632;SDS011;61927;50.080;14.418;2023-05-29T04:38:08;11.38;;;5.68;;
73632;SDS011;61927;50.080;14.418;2023-05-29T04:40:34;15.70;;;5.25;;
73632;SDS011;61927;50.080;14.418;2023-05-29T04:43:02;7.50;;;4.45;;
73632;SDS011;61927;50.080;14.418;2023-05-29T04:45:30;8.35;;;4.80;;
73632;SDS011;61927;50.080;14.418;2023-05-29T04:47:57;11.30;;;4.45;;
73632;SDS011;61927;50.080;14.418;2023-05-29T04:50:22;12.95;;;4.43;;
73632;SDS011;61927;50.080;14.418;2023-05-29T04:52:49;9.63;;;4.72;;
73632;SDS011;61927;50.080;14.418;2023-05-29T04:55:14;9.88;;;3.80;;
73632;SDS011;61927;50.080;14.418;2023-05-29T04:57:40;9.38;;;4.40;;
73632;SDS011;61927;50.080;14.418;2023-05-29T05:00:06;9.93;;;4.65;;
73632;SDS011;61927;50.080;14.418;2023-05-29T05:02:33;10.45;;;4.13;;
73632;SDS011;61927;50.080;14.418;2023-05-29T05:04:59;16.75;;;4.85;;
73632;SDS011;61927;50.080;14.418;2023-05-29T05:07:25;8.75;;;4.00;;
73632;SDS011;61927;50.080;14.418;2023-05-29T05:09:50;12.98;;;4.07;;
73632;SDS011;61927;50.080;14.418;2023-05-29T05:12:16;108.93;;;6.47;;
73632;SDS011;61927;50.080;14.418;2023-05-29T05:14:42;4.45;;;3.20;;
73632;SDS011;61927;50.080;14.418;2023-05-29T05:17:07;7.00;;;3.58;;
73632;SDS011;61927;50.080;14.418;2023-05-29T05:19:33;11.10;;;3.50;;
73632;SDS011;61927;50.080;14.418;2023-05-29T05:21:59;11.02;;;5.25;;
73632;SDS011;61927;50.080;14.418;2023-05-29T05:24:24;8.00;;;3.92;;
73632;SDS011;61927;50.080;14.418;2023-05-29T05:26:50;4.82;;;3.65;;
73632;SDS011;61927;50.080;14.418;2023-05-29T05:29:15;22.85;;;4.88;;
73632;SDS011;61927;50.080;14.418;2023-05-29T05:31:41;6.05;;;3.65;;
73632;SDS011;61927;50.080;14.418;2023-05-29T05:34:07;5.78;;;2.90;;
73632;SDS011;61927;50.080;14.418;2023-05-29T05:36:32;13.93;;;3.70;;
73632;SDS011;61927;50.080;14.418;2023-05-29T05:38:58;11.85;;;3.75;;
73632;SDS011;61927;50.080;14.418;2023-05-29T05:41:24;12.77;;;3.67;;
73632;SDS011;61927;50.080;14.418;2023-05-29T05:43:50;9.27;;;3.53;;
73632;SDS011;61927;50.080;14.418;2023-05-29T05:46:18;10.00;;;3.28;;
73632;SDS011;61927;50.080;14.418;2023-05-29T05:48:43;11.75;;;3.53;;
73632;SDS011;61927;50.080;14.418;2023-05-29T05:51:09;14.55;;;3.85;;
73632;SDS011;61927;50.080;14.418;2023-05-29T05:53:36;4.88;;;3.13;;
73632;SDS011;61927;50.080;14.418;2023-05-29T05:56:02;7.55;;;4.10;;
73632;SDS011;61927;50.080;14.418;2023-05-29T05:58:27;5.25;;;3.78;;
73632;SDS011;61927;50.080;14.418;2023-05-29T06:00:53;8.52;;;3.55;;
73632;SDS011;61927;50.080;14.418;2023-05-29T06:03:19;4.35;;;2.97;;
73632;SDS011;61927;50.080;14.418;2023-05-29T06:05:44;4.68;;;3.53;;
73632;SDS011;61927;50.080;14.418;2023-05-29T06:08:10;13.55;;;3.65;;
73632;SDS011;61927;50.080;14.418;2023-05-29T06:10:36;10.48;;;3.83;;
73632;SDS011;61927;50.080;14.418;2023-05-29T06:13:01;12.18;;;3.80;;
73632;SDS011;61927;50.080;14.418;2023-05-29T06:15:27;9.75;;;4.75;;
73632;SDS011;61927;50.080;14.418;2023-05-29T06:17:53;11.85;;;3.97;;
73632;SDS011;61927;50.080;14.418;2023-05-29T06:20:21;14.18;;;4.03;;
73632;SDS011;61927;50.080;14.418;2023-05-29T06:22:46;10.00;;;3.80;;
73632;SDS011;61927;50.080;14.418;2023-05-29T06:25:16;15.77;;;3.75;;
73632;SDS011;61927;50.080;14.418;2023-05-29T06:27:43;9.65;;;3.85;;
73632;SDS011;61927;50.080;14.418;2023-05-29T06:30:10;16.92;;;4.28;;
73632;SDS011;61927;50.080;14.418;2023-05-29T06:32:36;14.57;;;3.97;;
73632;SDS011;61927;50.080;14.418;2023-05-29T06:35:02;9.35;;;3.55;;
73632;SDS011;61927;50.080;14.418;2023-05-29T06:37:28;8.25;;;3.75;;
73632;SDS011;61927;50.080;14.418;2023-05-29T06:39:54;10.57;;;4.43;;
73632;SDS011;61927;50.080;14.418;2023-05-29T06:42:20;12.25;;;3.67;;
73632;SDS011;61927;50.080;14.418;2023-05-29T06:44:45;16.17;;;4.22;;
73632;SDS011;61927;50.080;14.418;2023-05-29T06:47:11;15.77;;;3.70;;
73632;SDS011;61927;50.080;14.418;2023-05-29T06:49:37;23.10;;;4.28;;
73632;SDS011;61927;50.080;14.418;2023-05-29T06:52:03;30.75;;;4.75;;
73632;SDS011;61927;50.080;14.418;2023-05-29T06:54:29;12.77;;;3.70;;
73632;SDS011;61927;50.080;14.418;2023-05-29T06:56:54;7.43;;;3.90;;
73632;SDS011;61927;50.080;14.418;2023-05-29T06:59:20;19.33;;;8.02;;
73632;SDS011;61927;50.080;14.418;2023-05-29T07:01:46;13.00;;;4.32;;
73632;SDS011;61927;50.080;14.418;2023-05-29T07:04:12;18.83;;;5.22;;
73632;SDS011;61927;50.080;14.418;2023-05-29T07:06:38;15.85;;;3.17;;
73632;SDS011;61927;50.080;14.418;2023-05-29T07:09:04;14.65;;;3.25;;
73632;SDS011;61927;50.080;14.418;2023-05-29T07:11:30;5.40;;;2.72;;
73632;SDS011;61927;50.080;14.418;2023-05-29T07:13:56;12.98;;;2.83;;
73632;SDS011;61927;50.080;14.418;2023-05-29T07:16:21;10.65;;;2.47;;
73632;SDS011;61927;50.080;14.418;2023-05-29T07:18:47;16.23;;;3.20;;
73632;SDS011;61927;50.080;14.418;2023-05-29T07:21:13;10.18;;;3.20;;
73632;SDS011;61927;50.080;14.418;2023-05-29T07:23:39;10.45;;;3.47;;
73632;SDS011;61927;50.080;14.418;2023-05-29T07:26:05;9.63;;;3.08;;
73632;SDS011;61927;50.080;14.418;2023-05-29T07:28:31;22.02;;;2.72;;
73632;SDS011;61927;50.080;14.418;2023-05-29T07:30:56;13.23;;;2.92;;
73632;SDS011;61927;50.080;14.418;2023-05-29T07:33:23;6.60;;;2.78;;
73632;SDS011;61927;50.080;14.418;2023-05-29T07:35:48;6.57;;;2.60;;
73632;SDS011;61927;50.080;14.418;2023-05-29T07:38:14;17.48;;;3.13;;
73632;SDS011;61927;50.080;14.418;2023-05-29T07:40:40;11.95;;;3.05;;
73632;SDS011;61927;50.080;14.418;2023-05-29T07:43:06;17.40;;;2.92;;
73632;SDS011;61927;50.080;14.418;2023-05-29T07:45:31;6.95;;;2.70;;
73632;SDS011;61927;50.080;14.418;2023-05-29T07:47:57;12.02;;;3.33;;
73632;SDS011;61927;50.080;14.418;2023-05-29T07:50:23;7.25;;;2.63;;
73632;SDS011;61927;50.080;14.418;2023-05-29T07:52:49;12.88;;;3.05;;
73632;SDS011;61927;50.080;14.418;2023-05-29T07:55:15;7.78;;;2.42;;
73632;SDS011;61927;50.080;14.418;2023-05-29T07:57:41;11.95;;;2.65;;
73632;SDS011;61927;50.080;14.418;2023-05-29T08:00:07;8.93;;;2.85;;
73632;SDS011;61927;50.080;14.418;2023-05-29T08:02:34;5.38;;;2.25;;
73632;SDS011;61927;50.080;14.418;2023-05-29T08:05:02;6.97;;;2.47;;
73632;SDS011;61927;50.080;14.418;2023-05-29T08:07:28;4.32;;;1.75;;
73632;SDS011;61927;50.080;14.418;2023-05-29T08:09:54;7.32;;;2.88;;
73632;SDS011;61927;50.080;14.418;2023-05-29T08:12:21;8.07;;;2.30;;
73632;SDS011;61927;50.080;14.418;2023-05-29T08:14:46;16.98;;;2.47;;
73632;SDS011;61927;50.080;14.418;2023-05-29T08:17:12;10.75;;;2.10;;
73632;SDS011;61927;50.080;14.418;2023-05-29T08:19:38;11.85;;;2.90;;
73632;SDS011;61927;50.080;14.418;2023-05-29T08:22:03;8.52;;;2.40;;
73632;SDS011;61927;50.080;14.418;2023-05-29T08:24:29;5.97;;;2.15;;
73632;SDS011;61927;50.080;14.418;2023-05-29T08:26:55;3.08;;;2.33;;
73632;SDS011;61927;50.080;14.418;2023-05-29T08:29:21;2.80;;;2.10;;
73632;SDS011;61927;50.080;14.418;2023-05-29T08:31:47;9.25;;;2.28;;
73632;SDS011;61927;50.080;14.418;2023-05-29T08:34:12;12.93;;;3.30;;
73632;SDS011;61927;50.080;14.418;2023-05-29T08:36:38;5.03;;;2.13;;
73632;SDS011;61927;50.080;14.418;2023-05-29T08:39:06;3.50;;;2.03;;
73632;SDS011;61927;50.080;14.418;2023-05-29T08:44:09;5.80;;;2.80;;
73632;SDS011;61927;50.080;14.418;2023-05-29T08:46:39;21.92;;;2.60;;
73632;SDS011;61927;50.080;14.418;2023-05-29T08:49:05;12.88;;;2.30;;
73632;SDS011;61927;50.080;14.418;2023-05-29T08:51:37;27.38;;;2.30;;
73632;SDS011;61927;50.080;14.418;2023-05-29T08:54:07;9.63;;;2.00;;
73632;SDS011;61927;50.080;14.418;2023-05-29T08:56:33;6.20;;;2.28;;
73632;SDS011;61927;50.080;14.418;2023-05-29T08:59:01;8.88;;;2.40;;
73632;SDS011;61927;50.080;14.418;2023-05-29T09:01:28;11.35;;;2.33;;
73632;SDS011;61927;50.080;14.418;2023-05-29T09:03:55;7.07;;;2.10;;
73632;SDS011;61927;50.080;14.418;2023-05-29T09:06:22;6.65;;;2.78;;
73632;SDS011;61927;50.080;14.418;2023-05-29T09:08:48;4.47;;;2.97;;
73632;SDS011;61927;50.080;14.418;2023-05-29T09:11:14;3.28;;;2.00;;
73632;SDS011;61927;50.080;14.418;2023-05-29T09:13:40;2.75;;;1.85;;
73632;SDS011;61927;50.080;14.418;2023-05-29T09:16:06;14.48;;;2.33;;
73632;SDS011;61927;50.080;14.418;2023-05-29T09:18:33;6.70;;;2.28;;
73632;SDS011;61927;50.080;14.418;2023-05-29T09:20:59;10.20;;;2.17;;
73632;SDS011;61927;50.080;14.418;2023-05-29T09:23:27;6.45;;;2.35;;
73632;SDS011;61927;50.080;14.418;2023-05-29T09:25:54;8.13;;;2.53;;
73632;SDS011;61927;50.080;14.418;2023-05-29T09:28:22;11.85;;;1.92;;
73632;SDS011;61927;50.080;14.418;2023-05-29T09:30:52;13.65;;;2.65;;
73632;SDS011;61927;50.080;14.418;2023-05-29T09:33:18;8.90;;;2.17;;
73632;SDS011;61927;50.080;14.418;2023-05-29T09:35:44;8.38;;;1.70;;
73632;SDS011;61927;50.080;14.418;2023-05-29T09:38:12;5.65;;;2.83;;
73632;SDS011;61927;50.080;14.418;2023-05-29T09:40:41;13.57;;;3.05;;
73632;SDS011;61927;50.080;14.418;2023-05-29T09:45:37;7.72;;;2.05;;
73632;SDS011;61927;50.080;14.418;2023-05-29T09:48:13;3.70;;;2.00;;
73632;SDS011;61927;50.080;14.418;2023-05-29T09:50:42;12.32;;;2.20;;
73632;SDS011;61927;50.080;14.418;2023-05-29T09:53:19;10.18;;;2.45;;
73632;SDS011;61927;50.080;14.418;2023-05-29T09:55:49;9.55;;;2.33;;
73632;SDS011;61927;50.080;14.418;2023-05-29T09:58:17;4.32;;;2.25;;
73632;SDS011;61927;50.080;14.418;2023-05-29T10:00:43;22.85;;;2.60;;
73632;SDS011;61927;50.080;14.418;2023-05-29T10:03:10;16.65;;;3.60;;
73632;SDS011;61927;50.080;14.418;2023-05-29T10:05:39;6.85;;;3.10;;
73632;SDS011;61927;50.080;14.418;2023-05-29T10:08:13;2.72;;;1.85;;
73632;SDS011;61927;50.080;14.418;2023-05-29T10:10:42;6.85;;;2.20;;
73632;SDS011;61927;50.080;14.418;2023-05-29T10:13:12;5.95;;;1.75;;
73632;SDS011;61927;50.080;14.418;2023-05-29T10:15:42;6.50;;;2.15;;
73632;SDS011;61927;50.080;14.418;2023-05-29T10:18:13;9.65;;;2.30;;
73632;SDS011;61927;50.080;14.418;2023-05-29T10:23:14;4.78;;;2.05;;
73632;SDS011;61927;50.080;14.418;2023-05-29T10:25:40;9.85;;;2.42;;
73632;SDS011;61927;50.080;14.418;2023-05-29T10:28:10;9.35;;;2.53;;
73632;SDS011;61927;50.080;14.418;2023-05-29T10:33:14;11.02;;;2.92;;
73632;SDS011;61927;50.080;14.418;2023-05-29T10:35:53;4.47;;;1.90;;
73632;SDS011;61927;50.080;14.418;2023-05-29T10:38:25;8.38;;;2.50;;
73632;SDS011;61927;50.080;14.418;2023-05-29T10:40:52;4.95;;;2.38;;
73632;SDS011;61927;50.080;14.418;2023-05-29T10:43:30;7.32;;;2.25;;
73632;SDS011;61927;50.080;14.418;2023-05-29T10:46:00;4.07;;;2.35;;
73632;SDS011;61927;50.080;14.418;2023-05-29T10:51:05;27.85;;;3.92;;
73632;SDS011;61927;50.080;14.418;2023-05-29T10:53:32;11.48;;;2.13;;
73632;SDS011;61927;50.080;14.418;2023-05-29T10:56:00;16.17;;;2.85;;
73632;SDS011;61927;50.080;14.418;2023-05-29T10:58:31;8.05;;;2.30;;
73632;SDS011;61927;50.080;14.418;2023-05-29T11:00:57;5.18;;;2.17;;
73632;SDS011;61927;50.080;14.418;2023-05-29T11:03:24;9.38;;;2.33;;
73632;SDS011;61927;50.080;14.418;2023-05-29T11:08:45;6.15;;;2.30;;
73632;SDS011;61927;50.080;14.418;2023-05-29T11:11:31;8.98;;;2.20;;
73632;SDS011;61927;50.080;14.418;2023-05-29T11:14:03;9.77;;;1.83;;
73632;SDS011;61927;50.080;14.418;2023-05-29T11:18:56;7.25;;;2.10;;
73632;SDS011;61927;50.080;14.418;2023-05-29T11:21:46;5.28;;;2.10;;
73632;SDS011;61927;50.080;14.418;2023-05-29T11:24:23;11.80;;;3.22;;
73632;SDS011;61927;50.080;14.418;2023-05-29T11:26:50;13.73;;;2.20;;
73632;SDS011;61927;50.080;14.418;2023-05-29T11:29:21;6.07;;;2.38;;
73632;SDS011;61927;50.080;14.418;2023-05-29T11:31:47;6.15;;;2.10;;
73632;SDS011;61927;50.080;14.418;2023-05-29T11:34:18;7.68;;;2.40;;
73632;SDS011;61927;50.080;14.418;2023-05-29T11:36:48;7.15;;;1.85;;
73632;SDS011;61927;50.080;14.418;2023-05-29T11:39:14;2.58;;;2.10;;
73632;SDS011;61927;50.080;14.418;2023-05-29T11:41:40;6.18;;;1.90;;
73632;SDS011;61927;50.080;14.418;2023-05-29T11:44:06;6.18;;;1.88;;
73632;SDS011;61927;50.080;14.418;2023-05-29T11:46:32;9.25;;;2.20;;
73632;SDS011;61927;50.080;14.418;2023-05-29T11:48:58;5.63;;;1.80;;
73632;SDS011;61927;50.080;14.418;2023-05-29T11:51:25;8.13;;;2.30;;
73632;SDS011;61927;50.080;14.418;2023-05-29T11:53:51;5.43;;;2.63;;
73632;SDS011;61927;50.080;14.418;2023-05-29T11:56:24;4.13;;;1.80;;
73632;SDS011;61927;50.080;14.418;2023-05-29T11:58:53;6.63;;;2.10;;
73632;SDS011;61927;50.080;14.418;2023-05-29T12:01:22;6.10;;;1.77;;
73632;SDS011;61927;50.080;14.418;2023-05-29T12:03:50;7.60;;;1.85;;
73632;SDS011;61927;50.080;14.418;2023-05-29T12:06:16;7.57;;;1.70;;
73632;SDS011;61927;50.080;14.418;2023-05-29T12:08:56;5.65;;;1.90;;
73632;SDS011;61927;50.080;14.418;2023-05-29T12:11:23;7.00;;;2.30;;
73632;SDS011;61927;50.080;14.418;2023-05-29T12:13:54;3.50;;;1.83;;
73632;SDS011;61927;50.080;14.418;2023-05-29T12:16:21;5.43;;;2.47;;
73632;SDS011;61927;50.080;14.418;2023-05-29T12:18:47;8.02;;;1.98;;
73632;SDS011;61927;50.080;14.418;2023-05-29T12:21:12;2.17;;;1.63;;
73632;SDS011;61927;50.080;14.418;2023-05-29T12:23:38;5.40;;;1.48;;
73632;SDS011;61927;50.080;14.418;2023-05-29T12:26:04;6.50;;;1.80;;
73632;SDS011;61927;50.080;14.418;2023-05-29T12:28:30;4.03;;;2.10;;
73632;SDS011;61927;50.080;14.418;2023-05-29T12:30:59;3.78;;;1.77;;
73632;SDS011;61927;50.080;14.418;2023-05-29T12:33:25;6.55;;;2.30;;
73632;SDS011;61927;50.080;14.418;2023-05-29T12:35:53;12.32;;;1.90;;
73632;SDS011;61927;50.080;14.418;2023-05-29T12:38:20;8.70;;;2.45;;
73632;SDS011;61927;50.080;14.418;2023-05-29T12:40:48;7.13;;;2.03;;
73632;SDS011;61927;50.080;14.418;2023-05-29T12:43:16;13.65;;;3.60;;
73632;SDS011;61927;50.080;14.418;2023-05-29T12:45:42;4.20;;;2.40;;
73632;SDS011;61927;50.080;14.418;2023-05-29T12:48:08;6.20;;;2.15;;
73632;SDS011;61927;50.080;14.418;2023-05-29T12:50:36;6.00;;;2.30;;
73632;SDS011;61927;50.080;14.418;2023-05-29T12:53:04;6.90;;;1.70;;
73632;SDS011;61927;50.080;14.418;2023-05-29T12:55:39;18.45;;;2.03;;
73632;SDS011;61927;50.080;14.418;2023-05-29T12:58:10;10.97;;;2.30;;
73632;SDS011;61927;50.080;14.418;2023-05-29T13:00:37;7.53;;;2.20;;
73632;SDS011;61927;50.080;14.418;2023-05-29T13:03:05;8.95;;;2.15;;
73632;SDS011;61927;50.080;14.418;2023-05-29T13:05:31;5.07;;;2.20;;
73632;SDS011;61927;50.080;14.418;2023-05-29T13:08:00;9.13;;;2.17;;
73632;SDS011;61927;50.080;14.418;2023-05-29T13:10:26;4.53;;;2.30;;
73632;SDS011;61927;50.080;14.418;2023-05-29T13:12:53;6.72;;;2.28;;
73632;SDS011;61927;50.080;14.418;2023-05-29T13:15:23;8.68;;;2.80;;
73632;SDS011;61927;50.080;14.418;2023-05-29T13:17:50;11.10;;;2.90;;
73632;SDS011;61927;50.080;14.418;2023-05-29T13:20:18;14.57;;;1.98;;
73632;SDS011;61927;50.080;14.418;2023-05-29T13:22:45;9.13;;;2.67;;
73632;SDS011;61927;50.080;14.418;2023-05-29T13:25:14;12.60;;;3.38;;
73632;SDS011;61927;50.080;14.418;2023-05-29T13:27:45;5.88;;;2.00;;
73632;SDS011;61927;50.080;14.418;2023-05-29T13:30:11;8.48;;;2.03;;
73632;SDS011;61927;50.080;14.418;2023-05-29T13:32:38;5.47;;;1.90;;
73632;SDS011;61927;50.080;14.418;2023-05-29T13:35:05;4.30;;;2.10;;
73632;SDS011;61927;50.080;14.418;2023-05-29T13:37:31;4.32;;;2.00;;
73632;SDS011;61927;50.080;14.418;2023-05-29T13:39:57;11.57;;;1.83;;
73632;SDS011;61927;50.080;14.418;2023-05-29T13:42:23;5.13;;;2.58;;
73632;SDS011;61927;50.080;14.418;2023-05-29T13:44:49;4.55;;;2.20;;
73632;SDS011;61927;50.080;14.418;2023-05-29T13:47:17;12.93;;;2.00;;
73632;SDS011;61927;50.080;14.418;2023-05-29T13:49:43;3.67;;;1.65;;
73632;SDS011;61927;50.080;14.418;2023-05-29T13:52:09;4.53;;;1.48;;
73632;SDS011;61927;50.080;14.418;2023-05-29T13:54:35;11.35;;;2.42;;
73632;SDS011;61927;50.080;14.418;2023-05-29T13:57:03;4.60;;;1.92;;
73632;SDS011;61927;50.080;14.418;2023-05-29T13:59:31;5.78;;;1.90;;
73632;SDS011;61927;50.080;14.418;2023-05-29T14:01:58;5.60;;;1.92;;
73632;SDS011;61927;50.080;14.418;2023-05-29T14:04:24;6.65;;;2.00;;
73632;SDS011;61927;50.080;14.418;2023-05-29T14:06:50;2.95;;;2.00;;
73632;SDS011;61927;50.080;14.418;2023-05-29T14:09:17;7.10;;;2.00;;
73632;SDS011;61927;50.080;14.418;2023-05-29T14:11:47;3.22;;;1.80;;
73632;SDS011;61927;50.080;14.418;2023-05-29T14:14:13;5.30;;;1.92;;
73632;SDS011;61927;50.080;14.418;2023-05-29T14:16:41;19.17;;;2.38;;
73632;SDS011;61927;50.080;14.418;2023-05-29T14:19:06;5.20;;;2.10;;
73632;SDS011;61927;50.080;14.418;2023-05-29T14:21:32;4.32;;;2.03;;
73632;SDS011;61927;50.080;14.418;2023-05-29T14:23:58;12.95;;;2.17;;
73632;SDS011;61927;50.080;14.418;2023-05-29T14:26:23;10.50;;;2.33;;
73632;SDS011;61927;50.080;14.418;2023-05-29T14:28:49;8.32;;;1.80;;
73632;SDS011;61927;50.080;14.418;2023-05-29T14:31:15;6.03;;;2.00;;
73632;SDS011;61927;50.080;14.418;2023-05-29T14:33:46;7.10;;;1.83;;
73632;SDS011;61927;50.080;14.418;2023-05-29T14:36:12;3.17;;;1.85;;
73632;SDS011;61927;50.080;14.418;2023-05-29T14:38:38;6.68;;;2.50;;
73632;SDS011;61927;50.080;14.418;2023-05-29T14:41:04;6.15;;;2.10;;
73632;SDS011;61927;50.080;14.418;2023-05-29T14:43:30;10.18;;;2.42;;
73632;SDS011;61927;50.080;14.418;2023-05-29T14:45:55;5.85;;;2.20;;
73632;SDS011;61927;50.080;14.418;2023-05-29T14:48:21;7.65;;;1.85;;
73632;SDS011;61927;50.080;14.418;2023-05-29T14:50:46;2.88;;;1.80;;
73632;SDS011;61927;50.080;14.418;2023-05-29T14:53:13;6.88;;;2.13;;
73632;SDS011;61927;50.080;14.418;2023-05-29T14:55:38;7.55;;;2.28;;